TimeCDT,TemperatureF,Dew PointF,Humidity,Sea Level PressureIn,VisibilityMPH,Wind Direction,Wind SpeedMPH,Gust SpeedMPH,PrecipitationIn,Events,Conditions,WindDirDegrees,DateUTC
12:53 AM,63.0,53.1,70,30.14,-9999.0,North,-9999.0,-,N/A,,Unknown,0,2013-05-12 05:53:00
1:53 AM,63.0,53.1,70,30.11,-9999.0,North,-9999.0,-,N/A,,Unknown,0,2013-05-12 06:53:00
2:53 AM,61.0,52.0,72,30.09,-9999.0,North,-9999.0,-,N/A,,Unknown,0,2013-05-12 07:53:00
3:53 AM,59.0,50.0,72,30.10,-9999.0,North,-9999.0,-,N/A,,Unknown,0,2013-05-12 08:53:00
4:53 AM,61.0,48.0,62,30.11,-9999.0,North,-9999.0,-,N/A,,Unknown,0,2013-05-12 09:53:00
5:53 AM,59.0,51.1,75,30.13,-9999.0,North,-9999.0,-,N/A,,Unknown,0,2013-05-12 10:53:00
6:53 AM,57.0,48.9,74,30.16,-9999.0,North,-9999.0,-,N/A,,Unknown,0,2013-05-12 11:53:00
7:53 AM,61.0,50.0,67,30.17,-9999.0,North,-9999.0,-,N/A,,Unknown,0,2013-05-12 12:53:00
8:53 AM,64.9,48.9,56,30.18,-9999.0,North,-9999.0,-,N/A,,Unknown,0,2013-05-12 13:53:00
9:53 AM,69.1,50.0,51,30.19,-9999.0,North,-9999.0,-,N/A,,Unknown,0,2013-05-12 14:53:00
10:53 AM,73.9,48.0,40,30.19,-9999.0,North,-9999.0,-,N/A,,Unknown,0,2013-05-12 15:53:00
11:53 AM,75.9,42.1,30,30.19,-9999.0,North,-9999.0,-,N/A,,Unknown,0,2013-05-12 16:53:00
12:53 PM,77.0,42.1,29,30.18,-9999.0,North,-9999.0,-,N/A,,Unknown,0,2013-05-12 17:53:00
1:53 PM,79.0,41.0,26,30.15,-9999.0,North,-9999.0,-,N/A,,Unknown,0,2013-05-12 18:53:00
2:53 PM,79.0,41.0,26,30.13,-9999.0,North,-9999.0,-,N/A,,Unknown,0,2013-05-12 19:53:00
3:53 PM,79.0,39.9,25,30.11,-9999.0,North,-9999.0,-,N/A,,Unknown,0,2013-05-12 20:53:00
4:53 PM,80.1,37.0,21,30.08,-9999.0,North,-9999.0,-,N/A,,Unknown,0,2013-05-12 21:53:00
5:53 PM,80.1,37.0,21,30.06,-9999.0,North,-9999.0,-,N/A,,Unknown,0,2013-05-12 22:53:00
6:53 PM,79.0,39.0,24,30.06,-9999.0,North,-9999.0,-,N/A,,Unknown,0,2013-05-12 23:53:00
7:53 PM,75.9,37.9,25,30.06,-9999.0,North,-9999.0,-,N/A,,Unknown,0,2013-05-13 00:53:00
8:53 PM,72.0,37.9,29,30.09,-9999.0,North,-9999.0,-,N/A,,Unknown,0,2013-05-13 01:53:00
9:53 PM,70.0,39.9,33,30.11,-9999.0,North,-9999.0,-,N/A,,Unknown,0,2013-05-13 02:53:00
10:53 PM,66.0,39.9,38,30.13,-9999.0,North,-9999.0,-,N/A,,Unknown,0,2013-05-13 03:53:00
11:53 PM,64.9,41.0,42,30.14,-9999.0,North,-9999.0,-,N/A,,Unknown,0,2013-05-13 04:53:00